sensor_id;sensor_type;location;lat;lon;timestamp;P1;durP1;ratioP1;P2;durP2;ratioP2
47764;SDS011;33529;49.242;8.670;2023-03-01T00:01:05;12.23;;;6.15;;
47764;SDS011;33529;49.242;8.670;2023-03-01T00:03:34;9.65;;;6.15;;
47764;SDS011;33529;49.242;8.670;2023-03-01T00:06:02;10.48;;;6.07;;
47764;SDS011;33529;49.242;8.670;2023-03-01T00:08:30;11.98;;;6.35;;
47764;SDS011;33529;49.242;8.670;2023-03-01T00:11:20;10.43;;;5.53;;
47764;SDS011;33529;49.242;8.670;2023-03-01T00:13:48;10.18;;;5.72;;
47764;SDS011;33529;49.242;8.670;2023-03-01T00:16:27;8.57;;;5.95;;
47764;SDS011;33529;49.242;8.670;2023-03-01T00:18:56;10.98;;;5.85;;
47764;SDS011;33529;49.242;8.670;2023-03-01T00:21:23;9.57;;;5.25;;
47764;SDS011;33529;49.242;8.670;2023-03-01T00:23:51;8.75;;;5.28;;
47764;SDS011;33529;49.242;8.670;2023-03-01T00:26:19;8.68;;;6.25;;
47764;SDS011;33529;49.242;8.670;2023-03-01T00:28:47;10.80;;;5.78;;
47764;SDS011;33529;49.242;8.670;2023-03-01T00:31:15;11.48;;;6.85;;
47764;SDS011;33529;49.242;8.670;2023-03-01T00:33:44;9.95;;;5.78;;
47764;SDS011;33529;49.242;8.670;2023-03-01T00:36:11;10.13;;;6.18;;
47764;SDS011;33529;49.242;8.670;2023-03-01T00:38:41;9.63;;;5.80;;
47764;SDS011;33529;49.242;8.670;2023-03-01T00:41:11;11.00;;;5.55;;
47764;SDS011;33529;49.242;8.670;2023-03-01T00:43:40;10.57;;;6.53;;
47764;SDS011;33529;49.242;8.670;2023-03-01T00:46:09;9.55;;;5.38;;
47764;SDS011;33529;49.242;8.670;2023-03-01T00:48:38;11.40;;;6.25;;
47764;SDS011;33529;49.242;8.670;2023-03-01T00:51:05;9.55;;;6.38;;
47764;SDS011;33529;49.242;8.670;2023-03-01T00:53:32;9.43;;;5.45;;
47764;SDS011;33529;49.242;8.670;2023-03-01T00:56:00;13.38;;;6.43;;
47764;SDS011;33529;49.242;8.670;2023-03-01T00:58:27;10.90;;;7.15;;
47764;SDS011;33529;49.242;8.670;2023-03-01T01:00:54;9.43;;;6.25;;
47764;SDS011;33529;49.242;8.670;2023-03-01T01:03:21;8.52;;;6.10;;
47764;SDS011;33529;49.242;8.670;2023-03-01T01:05:51;13.75;;;6.60;;
47764;SDS011;33529;49.242;8.670;2023-03-01T01:08:18;10.98;;;6.80;;
47764;SDS011;33529;49.242;8.670;2023-03-01T01:10:46;11.55;;;6.38;;
47764;SDS011;33529;49.242;8.670;2023-03-01T01:13:13;9.77;;;6.28;;
47764;SDS011;33529;49.242;8.670;2023-03-01T01:15:40;10.48;;;6.68;;
47764;SDS011;33529;49.242;8.670;2023-03-01T01:18:07;14.02;;;7.78;;
47764;SDS011;33529;49.242;8.670;2023-03-01T01:20:34;11.30;;;6.07;;
47764;SDS011;33529;49.242;8.670;2023-03-01T01:23:02;11.23;;;6.25;;
47764;SDS011;33529;49.242;8.670;2023-03-01T01:25:33;12.63;;;6.78;;
47764;SDS011;33529;49.242;8.670;2023-03-01T01:28:01;12.55;;;7.18;;
47764;SDS011;33529;49.242;8.670;2023-03-01T01:30:27;12.45;;;7.03;;
47764;SDS011;33529;49.242;8.670;2023-03-01T01:32:58;13.57;;;7.03;;
47764;SDS011;33529;49.242;8.670;2023-03-01T01:35:24;9.07;;;6.15;;
47764;SDS011;33529;49.242;8.670;2023-03-01T01:37:52;10.43;;;6.20;;
47764;SDS011;33529;49.242;8.670;2023-03-01T01:40:19;9.10;;;5.95;;
47764;SDS011;33529;49.242;8.670;2023-03-01T01:42:46;9.48;;;6.38;;
47764;SDS011;33529;49.242;8.670;2023-03-01T01:45:46;12.35;;;7.63;;
47764;SDS011;33529;49.242;8.670;2023-03-01T01:48:12;9.00;;;5.68;;
47764;SDS011;33529;49.242;8.670;2023-03-01T01:50:42;10.93;;;7.03;;
47764;SDS011;33529;49.242;8.670;2023-03-01T01:53:12;11.02;;;6.80;;
47764;SDS011;33529;49.242;8.670;2023-03-01T01:55:44;11.88;;;7.70;;
47764;SDS011;33529;49.242;8.670;2023-03-01T01:58:14;12.02;;;7.22;;
47764;SDS011;33529;49.242;8.670;2023-03-01T02:00:44;11.93;;;6.32;;
47764;SDS011;33529;49.242;8.670;2023-03-01T02:03:13;9.98;;;7.20;;
47764;SDS011;33529;49.242;8.670;2023-03-01T02:05:47;9.27;;;6.38;;
47764;SDS011;33529;49.242;8.670;2023-03-01T02:08:40;13.68;;;7.53;;
47764;SDS011;33529;49.242;8.670;2023-03-01T02:11:09;12.43;;;6.60;;
47764;SDS011;33529;49.242;8.670;2023-03-01T02:13:37;13.43;;;6.93;;
47764;SDS011;33529;49.242;8.670;2023-03-01T02:16:05;12.27;;;7.03;;
47764;SDS011;33529;49.242;8.670;2023-03-01T02:18:35;13.50;;;6.97;;
47764;SDS011;33529;49.242;8.670;2023-03-01T02:23:54;12.48;;;7.30;;
47764;SDS011;33529;49.242;8.670;2023-03-01T02:29:11;11.77;;;7.20;;
47764;SDS011;33529;49.242;8.670;2023-03-01T02:31:37;12.63;;;7.85;;
47764;SDS011;33529;49.242;8.670;2023-03-01T02:34:09;9.50;;;6.60;;
47764;SDS011;33529;49.242;8.670;2023-03-01T02:36:39;14.02;;;6.85;;
47764;SDS011;33529;49.242;8.670;2023-03-01T02:39:13;11.73;;;6.95;;
47764;SDS011;33529;49.242;8.670;2023-03-01T02:41:45;11.27;;;7.30;;
47764;SDS011;33529;49.242;8.670;2023-03-01T02:44:16;12.82;;;6.90;;
47764;SDS011;33529;49.242;8.670;2023-03-01T02:46:44;14.15;;;7.93;;
47764;SDS011;33529;49.242;8.670;2023-03-01T02:49:25;11.65;;;7.32;;
47764;SDS011;33529;49.242;8.670;2023-03-01T02:54:51;11.93;;;7.03;;
47764;SDS011;33529;49.242;8.670;2023-03-01T02:57:25;12.93;;;7.57;;
47764;SDS011;33529;49.242;8.670;2023-03-01T02:59:55;16.00;;;8.88;;
47764;SDS011;33529;49.242;8.670;2023-03-01T03:02:26;14.30;;;7.38;;
47764;SDS011;33529;49.242;8.670;2023-03-01T03:05:10;14.63;;;7.75;;
47764;SDS011;33529;49.242;8.670;2023-03-01T03:07:40;11.55;;;7.65;;
47764;SDS011;33529;49.242;8.670;2023-03-01T03:10:10;12.75;;;7.65;;
47764;SDS011;33529;49.242;8.670;2023-03-01T03:12:41;13.80;;;7.30;;
47764;SDS011;33529;49.242;8.670;2023-03-01T03:15:08;11.55;;;6.63;;
47764;SDS011;33529;49.242;8.670;2023-03-01T03:17:39;11.07;;;7.15;;
47764;SDS011;33529;49.242;8.670;2023-03-01T03:20:08;13.77;;;8.13;;
47764;SDS011;33529;49.242;8.670;2023-03-01T03:22:38;13.30;;;8.23;;
47764;SDS011;33529;49.242;8.670;2023-03-01T03:25:07;12.80;;;7.47;;
47764;SDS011;33529;49.242;8.670;2023-03-01T03:27:37;15.73;;;8.23;;
47764;SDS011;33529;49.242;8.670;2023-03-01T03:30:06;13.20;;;7.72;;
47764;SDS011;33529;49.242;8.670;2023-03-01T03:32:36;15.88;;;7.90;;
47764;SDS011;33529;49.242;8.670;2023-03-01T03:35:03;10.57;;;7.20;;
47764;SDS011;33529;49.242;8.670;2023-03-01T03:37:38;15.40;;;7.78;;
47764;SDS011;33529;49.242;8.670;2023-03-01T03:40:25;14.82;;;8.02;;
47764;SDS011;33529;49.242;8.670;2023-03-01T03:42:52;13.27;;;7.50;;
47764;SDS011;33529;49.242;8.670;2023-03-01T03:45:19;13.07;;;7.95;;
47764;SDS011;33529;49.242;8.670;2023-03-01T03:47:46;11.98;;;8.25;;
47764;SDS011;33529;49.242;8.670;2023-03-01T03:50:14;14.23;;;8.40;;
47764;SDS011;33529;49.242;8.670;2023-03-01T03:52:43;14.32;;;7.97;;
47764;SDS011;33529;49.242;8.670;2023-03-01T03:55:10;13.13;;;8.82;;
47764;SDS011;33529;49.242;8.670;2023-03-01T03:57:39;14.65;;;8.10;;
47764;SDS011;33529;49.242;8.670;2023-03-01T04:00:08;13.45;;;8.27;;
47764;SDS011;33529;49.242;8.670;2023-03-01T04:02:40;13.80;;;8.63;;
47764;SDS011;33529;49.242;8.670;2023-03-01T04:05:09;16.38;;;8.38;;
47764;SDS011;33529;49.242;8.670;2023-03-01T04:07:37;15.35;;;7.85;;
47764;SDS011;33529;49.242;8.670;2023-03-01T04:10:05;16.00;;;7.65;;
47764;SDS011;33529;49.242;8.670;2023-03-01T04:12:35;13.32;;;8.07;;
47764;SDS011;33529;49.242;8.670;2023-03-01T04:15:05;17.55;;;8.98;;
47764;SDS011;33529;49.242;8.670;2023-03-01T04:17:40;14.18;;;8.52;;
47764;SDS011;33529;49.242;8.670;2023-03-01T04:20:15;13.05;;;8.18;;
47764;SDS011;33529;49.242;8.670;2023-03-01T04:22:44;14.20;;;7.85;;
47764;SDS011;33529;49.242;8.670;2023-03-01T04:25:13;14.65;;;8.43;;
47764;SDS011;33529;49.242;8.670;2023-03-01T04:27:40;15.05;;;7.97;;
47764;SDS011;33529;49.242;8.670;2023-03-01T04:30:08;14.68;;;8.05;;
47764;SDS011;33529;49.242;8.670;2023-03-01T04:32:36;16.35;;;8.65;;
47764;SDS011;33529;49.242;8.670;2023-03-01T04:35:03;16.17;;;8.77;;
47764;SDS011;33529;49.242;8.670;2023-03-01T04:37:30;16.75;;;8.95;;
47764;SDS011;33529;49.242;8.670;2023-03-01T04:39:58;15.80;;;7.80;;
47764;SDS011;33529;49.242;8.670;2023-03-01T04:42:24;15.02;;;9.10;;
47764;SDS011;33529;49.242;8.670;2023-03-01T04:44:51;14.82;;;8.18;;
47764;SDS011;33529;49.242;8.670;2023-03-01T04:47:18;16.13;;;9.48;;
47764;SDS011;33529;49.242;8.670;2023-03-01T04:49:45;13.45;;;8.48;;
47764;SDS011;33529;49.242;8.670;2023-03-01T04:52:12;15.00;;;8.05;;
47764;SDS011;33529;49.242;8.670;2023-03-01T04:54:38;18.23;;;9.18;;
47764;SDS011;33529;49.242;8.670;2023-03-01T04:57:05;17.13;;;9.48;;
47764;SDS011;33529;49.242;8.670;2023-03-01T04:59:32;16.65;;;8.52;;
47764;SDS011;33529;49.242;8.670;2023-03-01T05:01:59;14.32;;;8.55;;
47764;SDS011;33529;49.242;8.670;2023-03-01T05:04:26;17.20;;;9.27;;
47764;SDS011;33529;49.242;8.670;2023-03-01T05:06:53;14.25;;;9.30;;
47764;SDS011;33529;49.242;8.670;2023-03-01T05:09:20;16.35;;;8.57;;
47764;SDS011;33529;49.242;8.670;2023-03-01T05:11:46;16.73;;;9.43;;
47764;SDS011;33529;49.242;8.670;2023-03-01T05:14:13;14.63;;;8.57;;
47764;SDS011;33529;49.242;8.670;2023-03-01T05:16:40;14.82;;;7.93;;
47764;SDS011;33529;49.242;8.670;2023-03-01T05:19:06;16.02;;;9.15;;
47764;SDS011;33529;49.242;8.670;2023-03-01T05:21:42;17.17;;;7.97;;
47764;SDS011;33529;49.242;8.670;2023-03-01T05:24:28;17.38;;;9.18;;
47764;SDS011;33529;49.242;8.670;2023-03-01T05:26:56;15.35;;;8.60;;
47764;SDS011;33529;49.242;8.670;2023-03-01T05:29:24;16.35;;;9.57;;
47764;SDS011;33529;49.242;8.670;2023-03-01T05:31:53;13.85;;;7.85;;
47764;SDS011;33529;49.242;8.670;2023-03-01T05:34:25;13.93;;;9.20;;
47764;SDS011;33529;49.242;8.670;2023-03-01T05:36:53;15.25;;;8.55;;
47764;SDS011;33529;49.242;8.670;2023-03-01T05:39:21;15.20;;;8.10;;
47764;SDS011;33529;49.242;8.670;2023-03-01T05:41:52;16.27;;;8.65;;
47764;SDS011;33529;49.242;8.670;2023-03-01T05:44:20;15.43;;;9.20;;
47764;SDS011;33529;49.242;8.670;2023-03-01T05:46:47;16.30;;;8.80;;
47764;SDS011;33529;49.242;8.670;2023-03-01T05:49:15;16.67;;;9.45;;
47764;SDS011;33529;49.242;8.670;2023-03-01T05:51:42;16.05;;;9.10;;
47764;SDS011;33529;49.242;8.670;2023-03-01T05:54:13;15.30;;;8.98;;
47764;SDS011;33529;49.242;8.670;2023-03-01T05:56:40;17.52;;;8.63;;
47764;SDS011;33529;49.242;8.670;2023-03-01T05:59:07;17.17;;;9.35;;
47764;SDS011;33529;49.242;8.670;2023-03-01T06:01:34;16.73;;;9.02;;
47764;SDS011;33529;49.242;8.670;2023-03-01T06:04:02;15.02;;;8.60;;
47764;SDS011;33529;49.242;8.670;2023-03-01T06:06:29;19.58;;;9.93;;
47764;SDS011;33529;49.242;8.670;2023-03-01T06:09:00;20.50;;;10.45;;
47764;SDS011;33529;49.242;8.670;2023-03-01T06:11:27;16.67;;;9.10;;
47764;SDS011;33529;49.242;8.670;2023-03-01T06:13:54;17.08;;;9.00;;
47764;SDS011;33529;49.242;8.670;2023-03-01T06:16:20;15.35;;;9.32;;
47764;SDS011;33529;49.242;8.670;2023-03-01T06:18:47;15.20;;;8.90;;
47764;SDS011;33529;49.242;8.670;2023-03-01T06:21:14;16.27;;;9.35;;
47764;SDS011;33529;49.242;8.670;2023-03-01T06:23:41;19.45;;;11.30;;
47764;SDS011;33529;49.242;8.670;2023-03-01T06:26:08;19.30;;;10.25;;
47764;SDS011;33529;49.242;8.670;2023-03-01T06:28:35;15.80;;;8.82;;
47764;SDS011;33529;49.242;8.670;2023-03-01T06:31:02;14.38;;;8.73;;
47764;SDS011;33529;49.242;8.670;2023-03-01T06:33:29;13.63;;;9.15;;
47764;SDS011;33529;49.242;8.670;2023-03-01T06:35:56;16.92;;;9.35;;
47764;SDS011;33529;49.242;8.670;2023-03-01T06:38:23;16.75;;;9.52;;
47764;SDS011;33529;49.242;8.670;2023-03-01T06:40:54;13.95;;;8.70;;
47764;SDS011;33529;49.242;8.670;2023-03-01T06:43:22;17.83;;;9.63;;
47764;SDS011;33529;49.242;8.670;2023-03-01T06:45:49;17.63;;;9.15;;
47764;SDS011;33529;49.242;8.670;2023-03-01T06:48:18;16.02;;;8.85;;
47764;SDS011;33529;49.242;8.670;2023-03-01T06:50:44;17.45;;;9.30;;
47764;SDS011;33529;49.242;8.670;2023-03-01T06:53:11;14.68;;;9.00;;
47764;SDS011;33529;49.242;8.670;2023-03-01T06:55:38;17.58;;;10.27;;
47764;SDS011;33529;49.242;8.670;2023-03-01T06:58:05;18.27;;;9.07;;
47764;SDS011;33529;49.242;8.670;2023-03-01T07:00:32;19.20;;;10.27;;
47764;SDS011;33529;49.242;8.670;2023-03-01T07:02:59;14.60;;;8.93;;
47764;SDS011;33529;49.242;8.670;2023-03-01T07:05:29;15.90;;;9.45;;
47764;SDS011;33529;49.242;8.670;2023-03-01T07:07:56;14.35;;;8.98;;
47764;SDS011;33529;49.242;8.670;2023-03-01T07:10:23;16.95;;;9.38;;
47764;SDS011;33529;49.242;8.670;2023-03-01T07:12:50;17.98;;;9.80;;
47764;SDS011;33529;49.242;8.670;2023-03-01T07:15:20;15.93;;;9.45;;
47764;SDS011;33529;49.242;8.670;2023-03-01T07:17:47;15.45;;;9.15;;
47764;SDS011;33529;49.242;8.670;2023-03-01T07:20:17;18.92;;;9.35;;
47764;SDS011;33529;49.242;8.670;2023-03-01T07:22:45;16.67;;;8.88;;
47764;SDS011;33529;49.242;8.670;2023-03-01T07:25:11;14.55;;;8.93;;
47764;SDS011;33529;49.242;8.670;2023-03-01T07:27:39;13.77;;;8.45;;
47764;SDS011;33529;49.242;8.670;2023-03-01T07:30:06;13.68;;;8.80;;
47764;SDS011;33529;49.242;8.670;2023-03-01T07:32:34;17.30;;;9.07;;
47764;SDS011;33529;49.242;8.670;2023-03-01T07:35:01;15.75;;;9.18;;
47764;SDS011;33529;49.242;8.670;2023-03-01T07:37:29;12.40;;;8.20;;
47764;SDS011;33529;49.242;8.670;2023-03-01T07:39:56;18.35;;;9.50;;
47764;SDS011;33529;49.242;8.670;2023-03-01T07:42:23;14.23;;;8.93;;
47764;SDS011;33529;49.242;8.670;2023-03-01T07:44:50;15.90;;;9.57;;
47764;SDS011;33529;49.242;8.670;2023-03-01T07:47:17;15.07;;;8.38;;
47764;SDS011;33529;49.242;8.670;2023-03-01T07:49:43;19.42;;;8.68;;
47764;SDS011;33529;49.242;8.670;2023-03-01T07:52:10;15.90;;;9.23;;
47764;SDS011;33529;49.242;8.670;2023-03-01T07:54:38;13.85;;;8.10;;
47764;SDS011;33529;49.242;8.670;2023-03-01T07:57:05;15.50;;;9.23;;
47764;SDS011;33529;49.242;8.670;2023-03-01T07:59:31;13.23;;;8.00;;
47764;SDS011;33529;49.242;8.670;2023-03-01T08:01:59;16.58;;;8.65;;
47764;SDS011;33529;49.242;8.670;2023-03-01T08:04:26;13.90;;;9.45;;
47764;SDS011;33529;49.242;8.670;2023-03-01T08:06:53;15.88;;;8.55;;
47764;SDS011;33529;49.242;8.670;2023-03-01T08:09:21;14.38;;;8.73;;
47764;SDS011;33529;49.242;8.670;2023-03-01T08:11:48;17.58;;;8.63;;
47764;SDS011;33529;49.242;8.670;2023-03-01T08:14:15;18.08;;;9.45;;
47764;SDS011;33529;49.242;8.670;2023-03-01T08:16:42;16.63;;;8.82;;
47764;SDS011;33529;49.242;8.670;2023-03-01T08:19:09;15.57;;;9.35;;
47764;SDS011;33529;49.242;8.670;2023-03-01T08:21:38;13.85;;;8.88;;
47764;SDS011;33529;49.242;8.670;2023-03-01T08:24:05;13.55;;;8.60;;
47764;SDS011;33529;49.242;8.670;2023-03-01T08:26:32;16.10;;;9.05;;
47764;SDS011;33529;49.242;8.670;2023-03-01T08:29:00;15.02;;;9.40;;
47764;SDS011;33529;49.242;8.670;2023-03-01T08:31:37;16.23;;;9.00;;
47764;SDS011;33529;49.242;8.670;2023-03-01T08:34:07;16.35;;;9.38;;
47764;SDS011;33529;49.242;8.670;2023-03-01T08:36:36;14.60;;;8.75;;
47764;SDS011;33529;49.242;8.670;2023-03-01T08:39:09;15.38;;;8.88;;
47764;SDS011;33529;49.242;8.670;2023-03-01T08:41:38;12.65;;;8.23;;
47764;SDS011;33529;49.242;8.670;2023-03-01T08:44:06;14.75;;;9.07;;
47764;SDS011;33529;49.242;8.670;2023-03-01T08:46:35;19.92;;;9.82;;
47764;SDS011;33529;49.242;8.670;2023-03-01T08:49:04;16.35;;;8.95;;
47764;SDS011;33529;49.242;8.670;2023-03-01T08:51:32;19.05;;;9.73;;
47764;SDS011;33529;49.242;8.670;2023-03-01T08:54:06;15.55;;;9.07;;
47764;SDS011;33529;49.242;8.670;2023-03-01T08:56:36;19.60;;;9.07;;
47764;SDS011;33529;49.242;8.670;2023-03-01T08:59:03;17.88;;;9.70;;
47764;SDS011;33529;49.242;8.670;2023-03-01T09:01:30;14.00;;;8.25;;
47764;SDS011;33529;49.242;8.670;2023-03-01T09:03:57;16.23;;;8.85;;
47764;SDS011;33529;49.242;8.670;2023-03-01T09:06:24;18.67;;;9.77;;
47764;SDS011;33529;49.242;8.670;2023-03-01T09:08:51;17.27;;;9.80;;
47764;SDS011;33529;49.242;8.670;2023-03-01T09:11:19;19.50;;;10.52;;
47764;SDS011;33529;49.242;8.670;2023-03-01T09:13:47;12.98;;;7.80;;
47764;SDS011;33529;49.242;8.670;2023-03-01T09:16:15;16.80;;;10.10;;
47764;SDS011;33529;49.242;8.670;2023-03-01T09:18:44;14.50;;;8.27;;
47764;SDS011;33529;49.242;8.670;2023-03-01T09:21:15;13.15;;;9.48;;
47764;SDS011;33529;49.242;8.670;2023-03-01T09:23:45;15.18;;;9.15;;
47764;SDS011;33529;49.242;8.670;2023-03-01T09:26:17;21.25;;;10.32;;
47764;SDS011;33529;49.242;8.670;2023-03-01T09:28:47;19.63;;;10.75;;
47764;SDS011;33529;49.242;8.670;2023-03-01T09:31:18;18.23;;;9.40;;
47764;SDS011;33529;49.242;8.670;2023-03-01T09:33:47;20.85;;;11.50;;
47764;SDS011;33529;49.242;8.670;2023-03-01T09:36:16;22.83;;;11.10;;
47764;SDS011;33529;49.242;8.670;2023-03-01T09:38:44;24.20;;;12.00;;
47764;SDS011;33529;49.242;8.670;2023-03-01T09:44:13;17.65;;;9.48;;
47764;SDS011;33529;49.242;8.670;2023-03-01T09:46:43;22.05;;;10.85;;
47764;SDS011;33529;49.242;8.670;2023-03-01T09:49:12;16.73;;;9.48;;
47764;SDS011;33529;49.242;8.670;2023-03-01T09:52:03;16.08;;;9.68;;
47764;SDS011;33529;49.242;8.670;2023-03-01T09:54:41;17.80;;;9.55;;
47764;SDS011;33529;49.242;8.670;2023-03-01T10:02:39;16.05;;;9.85;;
47764;SDS011;33529;49.242;8.670;2023-03-01T10:10:36;15.93;;;10.05;;
47764;SDS011;33529;49.242;8.670;2023-03-01T10:13:10;17.80;;;9.93;;
47764;SDS011;33529;49.242;8.670;2023-03-01T10:15:44;14.05;;;9.05;;
47764;SDS011;33529;49.242;8.670;2023-03-01T10:18:17;16.55;;;8.50;;
47764;SDS011;33529;49.242;8.670;2023-03-01T10:23:26;15.10;;;9.05;;
47764;SDS011;33529;49.242;8.670;2023-03-01T10:26:11;16.60;;;8.90;;
47764;SDS011;33529;49.242;8.670;2023-03-01T10:31:42;16.52;;;9.73;;
47764;SDS011;33529;49.242;8.670;2023-03-01T10:34:15;16.65;;;9.85;;
47764;SDS011;33529;49.242;8.670;2023-03-01T10:37:16;16.05;;;8.73;;
47764;SDS011;33529;49.242;8.670;2023-03-01T10:40:04;16.75;;;9.95;;
47764;SDS011;33529;49.242;8.670;2023-03-01T10:43:10;15.82;;;8.40;;
47764;SDS011;33529;49.242;8.670;2023-03-01T10:48:05;20.02;;;10.00;;
47764;SDS011;33529;49.242;8.670;2023-03-01T10:50:43;16.67;;;9.60;;
47764;SDS011;33529;49.242;8.670;2023-03-01T10:53:21;14.55;;;8.85;;
47764;SDS011;33529;49.242;8.670;2023-03-01T10:56:08;15.20;;;8.68;;
47764;SDS011;33529;49.242;8.670;2023-03-01T10:58:35;15.25;;;8.50;;
47764;SDS011;33529;49.242;8.670;2023-03-01T11:01:26;16.45;;;9.77;;
47764;SDS011;33529;49.242;8.670;2023-03-01T11:06:31;14.43;;;8.93;;
47764;SDS011;33529;49.242;8.670;2023-03-01T11:12:11;16.80;;;7.93;;
47764;SDS011;33529;49.242;8.670;2023-03-01T11:14:46;12.80;;;8.63;;
47764;SDS011;33529;49.242;8.670;2023-03-01T11:17:17;13.10;;;8.00;;
47764;SDS011;33529;49.242;8.670;2023-03-01T11:19:53;14.45;;;8.63;;
47764;SDS011;33529;49.242;8.670;2023-03-01T11:22:51;14.45;;;8.00;;
47764;SDS011;33529;49.242;8.670;2023-03-01T11:25:34;12.48;;;7.15;;
47764;SDS011;33529;49.242;8.670;2023-03-01T11:28:04;13.43;;;8.20;;
47764;SDS011;33529;49.242;8.670;2023-03-01T11:33:20;17.00;;;9.30;;
47764;SDS011;33529;49.242;8.670;2023-03-01T11:38:56;14.30;;;8.20;;
47764;SDS011;33529;49.242;8.670;2023-03-01T11:41:29;15.30;;;9.32;;
47764;SDS011;33529;49.242;8.670;2023-03-01T11:44:05;15.25;;;8.25;;
47764;SDS011;33529;49.242;8.670;2023-03-01T11:47:08;14.70;;;8.00;;
47764;SDS011;33529;49.242;8.670;2023-03-01T11:52:23;15.10;;;8.63;;
47764;SDS011;33529;49.242;8.670;2023-03-01T12:06:12;13.07;;;8.30;;
47764;SDS011;33529;49.242;8.670;2023-03-01T12:35:36;13.30;;;8.23;;
47764;SDS011;33529;49.242;8.670;2023-03-01T12:38:20;13.75;;;7.80;;
47764;SDS011;33529;49.242;8.670;2023-03-01T12:44:07;13.13;;;7.32;;
47764;SDS011;33529;49.242;8.670;2023-03-01T12:49:41;12.73;;;6.63;;
47764;SDS011;33529;49.242;8.670;2023-03-01T12:52:23;12.68;;;6.68;;
47764;SDS011;33529;49.242;8.670;2023-03-01T12:54:52;12.10;;;7.72;;
47764;SDS011;33529;49.242;8.670;2023-03-01T12:57:41;11.85;;;7.35;;
47764;SDS011;33529;49.242;8.670;2023-03-01T13:08:57;10.95;;;7.35;;
47764;SDS011;33529;49.242;8.670;2023-03-01T13:11:33;12.38;;;6.70;;
47764;SDS011;33529;49.242;8.670;2023-03-01T13:16:46;12.88;;;7.32;;
47764;SDS011;33529;49.242;8.670;2023-03-01T13:19:25;12.00;;;8.23;;
47764;SDS011;33529;49.242;8.670;2023-03-01T13:21:55;13.50;;;7.85;;
47764;SDS011;33529;49.242;8.670;2023-03-01T13:24:29;14.15;;;7.80;;
47764;SDS011;33529;49.242;8.670;2023-03-01T13:29:46;12.45;;;7.53;;
47764;SDS011;33529;49.242;8.670;2023-03-01T13:37:45;10.35;;;6.38;;
47764;SDS011;33529;49.242;8.670;2023-03-01T13:42:43;13.90;;;7.47;;
47764;SDS011;33529;49.242;8.670;2023-03-01T13:45:36;10.35;;;6.53;;
47764;SDS011;33529;49.242;8.670;2023-03-01T13:48:21;15.65;;;7.70;;
47764;SDS011;33529;49.242;8.670;2023-03-01T13:50:51;15.98;;;6.97;;
47764;SDS011;33529;49.242;8.670;2023-03-01T13:53:22;15.80;;;7.78;;
47764;SDS011;33529;49.242;8.670;2023-03-01T13:55:52;12.43;;;7.00;;
47764;SDS011;33529;49.242;8.670;2023-03-01T13:58:26;9.15;;;6.50;;
47764;SDS011;33529;49.242;8.670;2023-03-01T14:01:02;9.48;;;6.45;;
47764;SDS011;33529;49.242;8.670;2023-03-01T14:03:31;13.30;;;7.60;;
47764;SDS011;33529;49.242;8.670;2023-03-01T14:08:40;12.40;;;6.55;;
47764;SDS011;33529;49.242;8.670;2023-03-01T14:11:13;14.10;;;7.57;;
47764;SDS011;33529;49.242;8.670;2023-03-01T14:17:06;10.68;;;7.03;;
47764;SDS011;33529;49.242;8.670;2023-03-01T14:20:00;12.18;;;7.13;;
47764;SDS011;33529;49.242;8.670;2023-03-01T14:22:35;12.10;;;6.80;;
47764;SDS011;33529;49.242;8.670;2023-03-01T14:25:16;9.32;;;6.32;;
47764;SDS011;33529;49.242;8.670;2023-03-01T14:27:58;10.85;;;6.60;;
47764;SDS011;33529;49.242;8.670;2023-03-01T14:30:27;12.82;;;8.68;;
47764;SDS011;33529;49.242;8.670;2023-03-01T14:33:00;11.00;;;6.60;;
47764;SDS011;33529;49.242;8.670;2023-03-01T14:35:31;12.30;;;6.75;;
47764;SDS011;33529;49.242;8.670;2023-03-01T14:38:02;11.45;;;6.75;;
47764;SDS011;33529;49.242;8.670;2023-03-01T14:40:34;12.75;;;7.00;;
47764;SDS011;33529;49.242;8.670;2023-03-01T14:43:08;12.60;;;7.15;;
47764;SDS011;33529;49.242;8.670;2023-03-01T14:45:38;11.07;;;7.18;;
47764;SDS011;33529;49.242;8.670;2023-03-01T14:48:05;11.95;;;6.45;;
47764;SDS011;33529;49.242;8.670;2023-03-01T14:50:34;14.13;;;7.53;;
47764;SDS011;33529;49.242;8.670;2023-03-01T14:53:03;12.10;;;7.05;;
47764;SDS011;33529;49.242;8.670;2023-03-01T14:55:37;11.93;;;7.50;;
47764;SDS011;33529;49.242;8.670;2023-03-01T14:58:14;12.05;;;7.20;;
47764;SDS011;33529;49.242;8.670;2023-03-01T15:00:52;10.75;;;7.03;;
47764;SDS011;33529;49.242;8.670;2023-03-01T15:03:32;11.82;;;7.13;;
47764;SDS011;33529;49.242;8.670;2023-03-01T15:06:04;13.25;;;7.32;;
47764;SDS011;33529;49.242;8.670;2023-03-01T15:08:33;14.68;;;7.85;;
47764;SDS011;33529;49.242;8.670;2023-03-01T15:11:03;12.88;;;7.38;;
47764;SDS011;33529;49.242;8.670;2023-03-01T15:13:35;11.90;;;7.00;;
47764;SDS011;33529;49.242;8.670;2023-03-01T15:16:09;11.27;;;7.50;;
47764;SDS011;33529;49.242;8.670;2023-03-01T15:18:36;11.75;;;6.78;;
47764;SDS011;33529;49.242;8.670;2023-03-01T15:21:17;11.55;;;7.13;;
47764;SDS011;33529;49.242;8.670;2023-03-01T15:23:49;11.60;;;6.50;;
47764;SDS011;33529;49.242;8.670;2023-03-01T15:26:21;14.40;;;6.90;;
47764;SDS011;33529;49.242;8.670;2023-03-01T15:28:51;10.60;;;6.20;;
47764;SDS011;33529;49.242;8.670;2023-03-01T15:31:20;12.18;;;7.25;;
47764;SDS011;33529;49.242;8.670;2023-03-01T15:34:09;12.15;;;7.05;;
47764;SDS011;33529;49.242;8.670;2023-03-01T15:36:46;12.30;;;6.50;;
47764;SDS011;33529;49.242;8.670;2023-03-01T15:39:52;12.00;;;7.15;;
47764;SDS011;33529;49.242;8.670;2023-03-01T15:48:05;12.88;;;7.13;;
47764;SDS011;33529;49.242;8.670;2023-03-01T15:50:44;11.73;;;6.75;;
47764;SDS011;33529;49.242;8.670;2023-03-01T15:53:24;13.57;;;7.15;;
47764;SDS011;33529;49.242;8.670;2023-03-01T15:55:53;12.55;;;7.78;;
47764;SDS011;33529;49.242;8.670;2023-03-01T15:58:22;10.77;;;7.10;;
47764;SDS011;33529;49.242;8.670;2023-03-01T16:00:50;13.98;;;6.95;;
47764;SDS011;33529;49.242;8.670;2023-03-01T16:03:27;14.25;;;6.68;;
47764;SDS011;33529;49.242;8.670;2023-03-01T16:05:55;11.63;;;6.68;;
47764;SDS011;33529;49.242;8.670;2023-03-01T16:08:22;11.75;;;6.60;;
47764;SDS011;33529;49.242;8.670;2023-03-01T16:10:49;12.02;;;6.65;;
47764;SDS011;33529;49.242;8.670;2023-03-01T16:13:17;10.05;;;6.57;;
47764;SDS011;33529;49.242;8.670;2023-03-01T16:15:44;11.23;;;6.53;;
47764;SDS011;33529;49.242;8.670;2023-03-01T16:18:11;13.00;;;6.95;;
47764;SDS011;33529;49.242;8.670;2023-03-01T16:20:38;10.50;;;6.70;;
47764;SDS011;33529;49.242;8.670;2023-03-01T16:23:06;13.02;;;6.85;;
47764;SDS011;33529;49.242;8.670;2023-03-01T16:25:35;11.43;;;6.95;;
47764;SDS011;33529;49.242;8.670;2023-03-01T16:28:03;11.50;;;6.97;;
47764;SDS011;33529;49.242;8.670;2023-03-01T16:30:35;9.02;;;5.90;;
47764;SDS011;33529;49.242;8.670;2023-03-01T16:33:06;12.50;;;7.18;;
47764;SDS011;33529;49.242;8.670;2023-03-01T16:35:53;11.13;;;6.32;;
47764;SDS011;33529;49.242;8.670;2023-03-01T16:38:20;12.05;;;6.68;;
47764;SDS011;33529;49.242;8.670;2023-03-01T16:40:48;13.00;;;6.45;;
47764;SDS011;33529;49.242;8.670;2023-03-01T16:43:16;14.85;;;7.30;;
47764;SDS011;33529;49.242;8.670;2023-03-01T16:45:43;11.77;;;6.50;;
47764;SDS011;33529;49.242;8.670;2023-03-01T16:48:11;10.82;;;5.80;;
47764;SDS011;33529;49.242;8.670;2023-03-01T16:50:38;11.20;;;6.22;;
47764;SDS011;33529;49.242;8.670;2023-03-01T16:53:06;10.38;;;5.85;;
47764;SDS011;33529;49.242;8.670;2023-03-01T16:55:33;13.95;;;6.65;;
47764;SDS011;33529;49.242;8.670;2023-03-01T16:58:00;10.52;;;6.47;;
47764;SDS011;33529;49.242;8.670;2023-03-01T17:00:27;13.75;;;7.95;;